Time;durP1;ratioP1;P1;durP2;ratioP2;P2;SDS_P1;SDS_P2;PMS_P1;PMS_P2;Temp;Humidity;BMP_temperature;BMP_pressure;BME280_temperature;BME280_humidity;BME280_pressure;Samples;Min_cycle;Max_cycle;Signal;HPM_P1;HPM_P2
2022/09/10 00:12:39;;;;;;;9.40;7.00;;;;;;;14.14;100.00;100406.11;657108;1277;139369;-88
2022/09/10 00:27:42;;;;;;;8.30;5.50;;;;;;;14.13;100.00;100392.14;657831;1277;139396;-88
2022/09/10 00:42:45;;;;;;;10.70;7.50;;;;;;;14.03;100.00;100374.45;657860;1277;139159;-88
2022/09/10 00:57:53;;;;;;;9.60;6.50;;;;;;;14.02;100.00;100377.77;657826;1277;139298;-87
2022/09/10 01:13:28;;;;;;;11.60;6.70;;;;;;;14.05;100.00;100376.60;658326;1277;139530;-84
2022/09/10 01:28:40;;;;;;;11.60;7.90;;;;;;;14.12;100.00;100377.84;657130;1277;140654;-87
2022/09/10 01:43:44;;;;;;;11.40;7.20;;;;;;;14.05;100.00;100368.27;656562;1277;140480;-89
2022/09/10 01:58:47;;;;;;;13.50;9.50;;;;;;;14.03;100.00;100349.72;657539;1277;139849;-89
2022/09/10 02:13:58;;;;;;;13.10;8.70;;;;;;;14.00;100.00;100348.27;657818;1277;140352;-87
2022/09/10 02:29:24;;;;;;;13.40;9.00;;;;;;;14.06;100.00;100339.02;657159;1277;139604;-87
2022/09/10 02:44:28;;;;;;;12.70;8.60;;;;;;;14.06;100.00;100333.06;657693;1277;138811;-87
2022/09/10 02:59:31;;;;;;;14.00;8.60;;;;;;;14.06;100.00;100316.73;657925;1277;139832;-86
2022/09/10 03:14:35;;;;;;;13.60;9.50;;;;;;;13.96;100.00;100302.45;657771;1277;140238;-87
2022/09/10 03:29:38;;;;;;;13.90;9.20;;;;;;;13.96;100.00;100298.95;657634;1277;139409;-87
2022/09/10 03:44:42;;;;;;;10.60;7.30;;;;;;;13.89;100.00;100289.64;657474;1277;138836;-87
2022/09/10 03:59:45;;;;;;;13.10;8.60;;;;;;;13.89;100.00;100288.13;657122;1277;1515429;-86
2022/09/10 04:14:48;;;;;;;13.40;9.00;;;;;;;13.80;100.00;100281.48;657957;1277;139605;-89
2022/09/10 04:29:52;;;;;;;17.50;12.90;;;;;;;13.77;100.00;100278.11;658079;1277;139259;-87
2022/09/10 04:44:55;;;;;;;29.50;18.00;;;;;;;13.76;100.00;100278.92;658283;1277;139477;-88
2022/09/10 05:00:00;;;;;;;18.70;13.30;;;;;;;13.77;100.00;100278.34;657074;1277;139393;-88
2022/09/10 05:15:06;;;;;;;14.80;10.70;;;;;;;13.80;100.00;100268.34;657435;1277;140233;-88
2022/09/10 05:30:09;;;;;;;18.50;11.00;;;;;;;13.68;100.00;100260.73;657761;1277;140237;-87
2022/09/10 05:45:12;;;;;;;62.80;27.80;;;;;;;13.69;100.00;100264.73;657767;1277;140484;-88
2022/09/10 06:00:18;;;;;;;17.70;10.10;;;;;;;13.93;100.00;100276.67;657722;1277;140315;-88
2022/09/10 06:15:31;;;;;;;11.60;8.00;;;;;;;13.89;100.00;100288.53;658581;1277;139887;-90
2022/09/10 06:30:36;;;;;;;19.20;12.80;;;;;;;13.86;100.00;100287.39;658375;1276;140352;-87
2022/09/10 06:45:39;;;;;;;24.90;12.90;;;;;;;13.96;100.00;100285.13;660776;1277;140195;-86
2022/09/10 07:00:58;;;;;;;19.10;9.20;;;;;;;14.15;100.00;100272.85;659152;1277;140033;-89
2022/09/10 07:16:02;;;;;;;9.10;7.00;;;;;;;14.50;100.00;100272.37;658422;1276;140527;-87
2022/09/10 07:31:12;;;;;;;21.70;7.60;;;;;;;14.86;100.00;100267.94;658518;1277;138969;-86
2022/09/10 07:46:20;;;;;;;5.60;3.30;;;;;;;15.08;100.00;100255.21;658714;1277;139188;-87
2022/09/10 08:01:26;;;;;;;23.30;9.70;;;;;;;15.27;100.00;100261.29;660955;1277;138854;-89
2022/09/10 08:16:31;;;;;;;62.20;23.10;;;;;;;15.37;100.00;100262.33;658474;1277;139463;-86
2022/09/10 08:31:40;;;;;;;20.40;12.50;;;;;;;15.39;100.00;100262.10;660098;1277;139039;-85
2022/09/10 08:46:57;;;;;;;12.10;7.20;;;;;;;15.40;100.00;100263.21;660494;1276;140218;-89
2022/09/10 09:02:08;;;;;;;19.40;12.80;;;;;;;15.53;100.00;100253.41;660898;1277;139539;-86
2022/09/10 09:17:29;;;;;;;14.70;9.50;;;;;;;15.66;100.00;100257.92;660326;1277;141180;-87
2022/09/10 09:32:38;;;;;;;10.50;7.30;;;;;;;15.63;100.00;100255.83;660476;1277;139993;-88
2022/09/10 09:47:48;;;;;;;25.10;19.90;;;;;;;15.58;100.00;100262.06;659596;1276;140179;-88
2022/09/10 10:02:52;;;;;;;37.60;15.20;;;;;;;15.38;100.00;100261.70;659894;1277;140394;-90
2022/09/10 10:17:56;;;;;;;20.40;12.20;;;;;;;15.36;100.00;100248.16;658610;1277;141121;-89
2022/09/10 10:33:02;;;;;;;20.60;11.30;;;;;;;15.37;100.00;100232.27;659446;1277;141097;-87
2022/09/10 10:48:34;;;;;;;27.00;15.80;;;;;;;15.79;100.00;100232.90;661967;1277;140885;-88
2022/09/10 11:04:22;;;;;;;19.30;11.60;;;;;;;15.55;100.00;100234.67;661700;1277;140185;-87
2022/09/10 11:19:34;;;;;;;26.40;12.60;;;;;;;15.52;100.00;100244.30;660398;1277;139940;-87
2022/09/10 11:34:54;;;;;;;19.80;11.00;;;;;;;15.30;100.00;100240.33;660295;1276;140609;-88
2022/09/10 11:50:02;;;;;;;16.10;9.50;;;;;;;15.36;100.00;100231.41;663551;1276;139357;-87
2022/09/10 12:05:36;;;;;;;18.30;11.10;;;;;;;15.30;100.00;100228.51;659831;1277;140911;-88
2022/09/10 12:20:47;;;;;;;15.70;9.70;;;;;;;15.30;100.00;100217.11;658228;1275;140918;-86
2022/09/10 12:35:51;;;;;;;14.60;11.30;;;;;;;15.25;100.00;100203.93;657773;1277;139077;-85
2022/09/10 12:50:59;;;;;;;25.90;17.70;;;;;;;15.17;100.00;100198.77;658108;1276;139217;-88
2022/09/10 13:06:05;;;;;;;23.00;13.60;;;;;;;15.16;100.00;100193.97;657623;1277;140140;-87
2022/09/10 13:21:22;;;;;;;19.20;13.30;;;;;;;15.00;100.00;100199.24;656784;1277;139246;-90
2022/09/10 13:36:47;;;;;;;22.90;15.10;;;;;;;15.25;100.00;100190.83;656427;1277;140167;-88
2022/09/10 13:51:54;;;;;;;18.40;11.70;;;;;;;15.28;100.00;100172.63;659940;1276;139399;-91
2022/09/10 14:07:27;;;;;;;41.50;27.10;;;;;;;15.16;100.00;100164.92;660735;1276;140408;-90
2022/09/10 14:22:31;;;;;;;36.30;17.80;;;;;;;15.09;100.00;100161.76;660067;1276;140285;-89
2022/09/10 14:37:41;;;;;;;19.10;12.20;;;;;;;15.04;100.00;100147.73;665735;1277;140623;-90
2022/09/10 14:52:44;;;;;;;32.30;18.80;;;;;;;15.02;100.00;100135.88;671189;1277;141809;-86
2022/09/10 15:07:49;;;;;;;20.00;13.20;;;;;;;15.13;100.00;100140.02;660024;1276;140053;-91
2022/09/10 15:22:52;;;;;;;40.30;25.60;;;;;;;15.07;100.00;100137.33;669445;1277;141930;-92
2022/09/10 15:37:56;;;;;;;20.50;13.80;;;;;;;14.99;100.00;100133.41;660078;1277;142252;-91
2022/09/10 15:53:00;;;;;;;28.60;18.30;;;;;;;14.91;100.00;100127.83;666475;1277;141792;-90
2022/09/10 16:08:05;;;;;;;20.70;14.10;;;;;;;14.88;100.00;100122.73;666954;1277;1511369;-88
2022/09/10 16:31:21;;;;;;;45.80;27.10;;;;;;;15.19;100.00;100128.15;640302;1315;1677704;-88
2022/09/10 16:46:26;;;;;;;42.10;23.60;;;;;;;15.06;100.00;100124.98;653598;1287;139706;-90
2022/09/10 17:01:30;;;;;;;32.50;20.70;;;;;;;14.99;100.00;100121.63;653449;1287;139300;-89
2022/09/10 17:16:38;;;;;;;63.90;36.00;;;;;;;14.98;100.00;100118.55;652837;1288;138914;-89
2022/09/10 17:31:45;;;;;;;35.60;21.10;;;;;;;14.96;100.00;100117.23;652823;1288;140701;-89
2022/09/10 17:46:49;;;;;;;25.50;15.40;;;;;;;15.02;100.00;100117.10;652836;1289;139416;-89
2022/09/10 18:01:53;;;;;;;27.30;16.30;;;;;;;14.99;100.00;100111.63;654828;1288;139755;-90
2022/09/10 18:16:57;;;;;;;23.80;15.10;;;;;;;14.98;100.00;100104.86;660481;1281;139756;-91
2022/09/10 18:32:01;;;;;;;35.70;19.50;;;;;;;15.02;100.00;100097.73;673339;1280;139787;-89
2022/09/10 18:47:06;;;;;;;36.40;21.20;;;;;;;15.11;100.00;100099.17;672577;1280;139336;-89
2022/09/10 19:02:25;;;;;;;22.10;13.70;;;;;;;15.06;100.00;100099.39;669787;1281;140095;-91
2022/09/10 19:17:30;;;;;;;18.60;12.10;;;;;;;15.01;100.00;100105.08;672302;1281;141015;-87
2022/09/10 19:32:34;;;;;;;27.10;14.30;;;;;;;14.96;100.00;100106.08;669556;1280;140841;-90
2022/09/10 19:47:39;;;;;;;31.00;17.00;;;;;;;14.98;100.00;100106.45;657845;1281;139416;-88
2022/09/10 20:02:48;;;;;;;38.60;18.60;;;;;;;14.92;100.00;100099.48;658573;1281;139195;-89
2022/09/10 20:17:52;;;;;;;39.10;19.60;;;;;;;14.91;100.00;100093.54;658182;1281;141469;-91
2022/09/10 20:32:56;;;;;;;33.60;18.90;;;;;;;14.91;100.00;100079.42;657054;1281;139341;-89
2022/09/10 20:48:00;;;;;;;34.80;17.50;;;;;;;14.91;100.00;100072.39;655436;1281;141183;-89
2022/09/10 21:03:04;;;;;;;42.70;22.30;;;;;;;14.88;100.00;100061.89;657060;1281;139252;-89
2022/09/10 21:18:08;;;;;;;38.10;18.00;;;;;;;14.85;100.00;100042.56;654752;1281;140524;-90
2022/09/10 21:33:11;;;;;;;34.00;15.80;;;;;;;14.80;100.00;100041.28;654830;1281;139823;-89
2022/09/10 21:48:15;;;;;;;27.50;15.10;;;;;;;14.79;100.00;100044.77;654609;1281;139390;-92
2022/09/10 22:03:18;;;;;;;29.60;15.70;;;;;;;14.81;100.00;100046.86;655456;1281;140128;-90
2022/09/10 22:18:22;;;;;;;28.40;15.40;;;;;;;14.77;100.00;100044.79;656363;1281;139986;-89
2022/09/10 22:33:25;;;;;;;27.20;14.10;;;;;;;14.77;100.00;100044.75;655357;1281;139818;-91
2022/09/10 22:48:28;;;;;;;28.00;14.90;;;;;;;14.77;100.00;100030.17;656668;1281;139099;-91
2022/09/10 23:03:32;;;;;;;20.50;11.00;;;;;;;14.77;100.00;100018.55;655140;1281;140755;-91
2022/09/10 23:18:35;;;;;;;19.90;11.90;;;;;;;14.71;100.00;100010.41;656190;1282;140019;-88
2022/09/10 23:33:43;;;;;;;23.90;13.80;;;;;;;14.72;100.00;99999.06;654447;1281;139186;-89
2022/09/10 23:48:48;;;;;;;24.50;13.80;;;;;;;14.70;100.00;99989.70;655159;1282;138936;-91
